createdAt,value
2019-04-11T00:00:33.476Z,1.7
2019-04-11T00:01:39.020Z,1.5
2019-04-11T00:02:34.729Z,1.8
2019-04-11T00:03:33.661Z,1.8
2019-04-11T00:04:34.433Z,1.8
2019-04-11T00:05:34.918Z,1.7
2019-04-11T00:06:35.888Z,1.6
2019-04-11T00:07:34.276Z,1.4
2019-04-11T00:08:35.483Z,1.6
2019-04-11T00:09:35.554Z,1.8
2019-04-11T00:10:35.335Z,1.8
2019-04-11T00:11:35.790Z,1.5
2019-04-11T00:12:34.717Z,1.7
2019-04-11T00:13:36.373Z,1.8
2019-04-11T00:14:35.954Z,1.6
2019-04-11T00:15:34.961Z,1.5
2019-04-11T00:16:34.886Z,1.8
2019-04-11T00:17:36.198Z,1.7
2019-04-11T00:18:36.186Z,1.5
2019-04-11T00:19:35.791Z,1.9
2019-04-11T00:20:36.043Z,1.5
2019-04-11T00:21:35.557Z,1.4
2019-04-11T00:22:35.657Z,1.4
2019-04-11T00:23:36.455Z,1.6
2019-04-11T00:24:36.903Z,1.7
2019-04-11T00:25:36.178Z,1.4
2019-04-11T00:26:36.201Z,1.7
2019-04-11T00:27:35.879Z,1.6
2019-04-11T00:28:36.128Z,1.6
2019-04-11T00:29:36.560Z,1.6
2019-04-11T00:30:36.559Z,1.6
2019-04-11T00:31:36.872Z,1.6
2019-04-11T00:32:36.471Z,1.5
2019-04-11T00:33:36.581Z,1.5
2019-04-11T00:34:37.437Z,1.5
2019-04-11T00:35:36.799Z,1.5
2019-04-11T00:36:36.840Z,1.6
2019-04-11T00:37:37.018Z,1.8
2019-04-11T00:38:37.928Z,1.6
2019-04-11T00:39:39.514Z,2
2019-04-11T00:40:39.438Z,1.8
2019-04-11T00:41:38.347Z,1.7
2019-04-11T00:42:37.411Z,1.6
2019-04-11T00:43:41.933Z,1.6
2019-04-11T00:44:39.041Z,1.3
2019-04-11T00:45:38.096Z,1.5
2019-04-11T00:46:38.079Z,1.6
2019-04-11T00:47:39.756Z,1.5
2019-04-11T00:48:38.378Z,1.6
2019-04-11T00:49:38.740Z,1.7
2019-04-11T00:50:39.145Z,1.5
2019-04-11T00:51:38.457Z,1.4
2019-04-11T00:52:39.149Z,1.6
2019-04-11T00:53:38.736Z,1.7
2019-04-11T00:54:39.297Z,1.5
2019-04-11T00:55:39.728Z,1.8
2019-04-11T00:56:40.056Z,1.5
2019-04-11T00:57:39.103Z,1.4
2019-04-11T00:58:39.134Z,1.5
2019-04-11T00:59:40.527Z,1.6
2019-04-11T01:00:40.159Z,1.6
2019-04-11T01:01:39.453Z,1.5
2019-04-11T01:02:41.479Z,1.7
2019-04-11T01:03:43.276Z,1.3
2019-04-11T01:04:41.114Z,1.5
2019-04-11T01:05:41.517Z,1.7
2019-04-11T01:06:40.508Z,1.5
2019-04-11T01:07:40.877Z,1.6
2019-04-11T01:08:40.170Z,1.5
2019-04-11T01:09:40.345Z,1.4
2019-04-11T01:10:41.400Z,1.5
2019-04-11T01:11:41.196Z,1.7
2019-04-11T01:12:40.762Z,1.3
2019-04-11T01:13:47.652Z,1.6
2019-04-11T01:14:42.611Z,1.3
2019-04-11T01:15:42.697Z,1.6
2019-04-11T01:16:42.945Z,1.6
2019-04-11T01:17:41.925Z,1.4
2019-04-11T01:18:42.302Z,1.6
2019-04-11T01:19:42.690Z,1.6
2019-04-11T01:20:41.873Z,1.5
2019-04-11T01:21:42.321Z,1.7
2019-04-11T01:22:42.480Z,1.6
2019-04-11T01:23:41.602Z,1.5
2019-04-11T01:24:42.014Z,1.5
2019-04-11T01:25:41.784Z,1.3
2019-04-11T01:26:41.834Z,1.3
2019-04-11T01:27:42.526Z,1.6
2019-04-11T01:28:42.872Z,1.5
2019-04-11T01:29:42.411Z,1.4
2019-04-11T01:30:42.285Z,1.5
2019-04-11T01:31:42.855Z,1.3
2019-04-11T01:32:42.475Z,1.4
2019-04-11T01:33:42.619Z,1.4
2019-04-11T01:34:42.746Z,1.4
2019-04-11T01:35:43.608Z,1.6
2019-04-11T01:36:44.998Z,1.3
2019-04-11T01:37:44.034Z,1.3
2019-04-11T01:38:44.207Z,1.4
2019-04-11T01:39:45.263Z,1.5
2019-04-11T01:40:45.568Z,1.4
2019-04-11T01:41:44.754Z,1.4
2019-04-11T01:42:43.737Z,1.7
2019-04-11T01:43:53.228Z,1.4
2019-04-11T01:44:45.932Z,1.4
2019-04-11T01:45:45.544Z,1.5
2019-04-11T01:46:44.423Z,1.5
2019-04-11T01:47:44.727Z,1.3
2019-04-11T01:48:44.366Z,1.7
2019-04-11T01:49:44.288Z,1.3
2019-04-11T01:50:45.240Z,1.5
2019-04-11T01:51:45.547Z,1.5
2019-04-11T01:52:44.626Z,1.6
2019-04-11T01:53:44.643Z,1.5
2019-04-11T01:54:44.608Z,1.4
2019-04-11T01:55:45.050Z,1.4
2019-04-11T01:56:45.387Z,1.5
2019-04-11T01:57:44.905Z,1.6
2019-04-11T01:58:44.958Z,1.5
2019-04-11T01:59:45.777Z,1.3
2019-04-11T02:00:45.914Z,1.5
2019-04-11T02:01:45.234Z,1.3
2019-04-11T02:02:45.187Z,1.2
2019-04-11T02:03:45.676Z,1.5
2019-04-11T02:04:46.028Z,1.5
2019-04-11T02:05:45.574Z,1.5
2019-04-11T02:06:45.904Z,1.4
2019-04-11T02:07:46.884Z,1.3
2019-04-11T02:08:47.240Z,1.3
2019-04-11T02:09:46.391Z,1.5
2019-04-11T02:10:46.076Z,1.4
2019-04-11T02:11:46.296Z,1.4
2019-04-11T02:12:46.369Z,1.3
2019-04-11T02:13:46.592Z,1.3
2019-04-11T02:14:46.422Z,1.5
2019-04-11T02:15:46.490Z,1.4
2019-04-11T02:16:47.359Z,1.4
2019-04-11T02:17:48.588Z,1.5
2019-04-11T02:18:48.057Z,1.3
2019-04-11T02:19:46.793Z,1.3
2019-04-11T02:20:47.297Z,1.2
2019-04-11T02:21:46.952Z,1.3
2019-04-11T02:22:47.104Z,1.3
2019-04-11T02:23:47.645Z,1.5
2019-04-11T02:24:47.985Z,1.4
2019-04-11T02:25:47.482Z,1.3
2019-04-11T02:26:47.647Z,1.4
2019-04-11T02:27:48.369Z,1.6
2019-04-11T02:28:48.765Z,1.7
2019-04-11T02:29:48.828Z,1.2
2019-04-11T02:30:48.485Z,1.4
2019-04-11T02:31:50.702Z,1.1
2019-04-11T02:32:49.870Z,1.4
2019-04-11T02:33:50.822Z,1.4
2019-04-11T02:34:50.638Z,1.2
2019-04-11T02:35:49.654Z,1.2
2019-04-11T02:36:49.096Z,1.3
2019-04-11T02:37:51.518Z,1.3
2019-04-11T02:38:54.906Z,1.3
2019-04-11T02:39:51.577Z,1.3
2019-04-11T02:40:50.281Z,1.3
2019-04-11T02:41:50.749Z,1.4
2019-04-11T02:42:49.806Z,1.2
2019-04-11T02:43:50.877Z,1.4
2019-04-11T02:45:02.890Z,1.1
2019-04-11T02:45:57.922Z,1.3
2019-04-11T02:47:00.391Z,1.1
2019-04-11T02:47:53.712Z,1.1
2019-04-11T02:48:52.144Z,1.1
2019-04-11T02:49:51.798Z,1.2
2019-04-11T02:50:50.870Z,1.4
2019-04-11T02:51:51.263Z,1.3
2019-04-11T02:52:51.976Z,1.3
2019-04-11T02:53:51.892Z,1.3
2019-04-11T02:54:52.635Z,1.3
2019-04-11T02:55:52.116Z,1.2
2019-04-11T02:56:52.430Z,1.3
2019-04-11T02:57:51.988Z,1.4
2019-04-11T02:58:52.237Z,1.5
2019-04-11T02:59:53.684Z,1.2
2019-04-11T03:00:53.587Z,1.4
2019-04-11T03:01:52.998Z,1.3
2019-04-11T03:02:53.085Z,1.3
2019-04-11T03:03:53.903Z,1.4
2019-04-11T03:04:52.845Z,1.4
2019-04-11T03:05:53.192Z,1.2
2019-04-11T03:06:53.335Z,1.3
2019-04-11T03:07:51.786Z,1.3
2019-04-11T03:08:53.017Z,1.5
2019-04-11T03:09:53.521Z,1.3
2019-04-11T03:10:53.651Z,1.2
2019-04-11T03:11:54.622Z,1.4
2019-04-11T03:12:54.529Z,1.2
2019-04-11T03:13:54.812Z,1.2
2019-04-11T03:15:09.032Z,1.2
2019-04-11T03:16:05.178Z,1.4
2019-04-11T03:17:02.236Z,1.1
2019-04-11T03:17:59.134Z,1.3
2019-04-11T03:19:09.790Z,1.1
2019-04-11T03:20:08.236Z,1.4
2019-04-11T03:20:57.368Z,1.2
2019-04-11T03:21:56.568Z,1.3
2019-04-11T03:22:57.883Z,1.2
2019-04-11T03:23:56.168Z,1.3
2019-04-11T03:24:56.078Z,1.3
2019-04-11T03:25:56.490Z,1.1
2019-04-11T03:26:56.827Z,1.5
2019-04-11T03:27:56.882Z,1.3
2019-04-11T03:28:57.300Z,1.3
2019-04-11T03:29:55.861Z,1.3
2019-04-11T03:31:26.094Z,1.3
2019-04-11T03:32:36.634Z,1.4
2019-04-11T03:34:46.679Z,1.3
2019-04-11T03:35:50.635Z,1.1
2019-04-11T03:38:18.246Z,1
2019-04-11T03:39:14.392Z,1.1
2019-04-11T03:40:16.764Z,1.3
2019-04-11T03:41:15.364Z,1.2
2019-04-11T03:42:13.990Z,1.2
2019-04-11T03:43:08.681Z,1.2
2019-04-11T03:44:03.439Z,1.3
2019-04-11T03:45:20.245Z,1.3
2019-04-11T03:46:12.981Z,1
2019-04-11T03:47:11.012Z,1.3
2019-04-11T03:48:10.018Z,1.3
2019-04-11T03:49:05.944Z,1.3
2019-04-11T03:50:03.627Z,1.4
2019-04-11T03:50:59.370Z,1.4
2019-04-11T03:51:58.974Z,1.1
2019-04-11T03:52:59.367Z,1.3
2019-04-11T03:53:59.074Z,1.3
2019-04-11T03:54:58.808Z,1.1
2019-04-11T03:55:59.119Z,1.4
2019-04-11T03:56:59.163Z,1.3
2019-04-11T03:57:59.102Z,1.3
2019-04-11T03:58:58.577Z,1.2
2019-04-11T03:59:58.732Z,1
2019-04-11T04:01:02.954Z,1.3
2019-04-11T04:01:59.641Z,1.4
2019-04-11T04:02:59.950Z,1.1
2019-04-11T04:04:00.555Z,1.3
2019-04-11T04:04:59.259Z,1.3
2019-04-11T04:05:59.883Z,1.2
2019-04-11T04:06:59.302Z,1.2
2019-04-11T04:08:00.087Z,1.3
2019-04-11T04:09:00.620Z,1.4
2019-04-11T04:10:00.417Z,1.3
2019-04-11T04:11:00.596Z,1.2
2019-04-11T04:11:59.745Z,1.1
2019-04-11T04:13:00.190Z,1.3
2019-04-11T04:14:01.391Z,1.2
2019-04-11T04:15:01.403Z,1.3
2019-04-11T04:16:11.824Z,1.2
2019-04-11T04:17:03.745Z,1.1
2019-04-11T04:18:00.158Z,1.3
2019-04-11T04:19:01.490Z,1.1
2019-04-11T04:20:02.163Z,1
2019-04-11T04:21:01.815Z,1
2019-04-11T04:22:00.648Z,1
2019-04-11T04:23:00.868Z,1.3
2019-04-11T04:24:03.310Z,1.2
2019-04-11T04:25:01.185Z,1.2
2019-04-11T04:26:01.063Z,1.1
2019-04-11T04:27:01.825Z,1.2
2019-04-11T04:28:02.861Z,1.2
2019-04-11T04:29:02.005Z,1.2
2019-04-11T04:30:02.728Z,1.2
2019-04-11T04:31:02.069Z,1.2
2019-04-11T04:32:00.305Z,1.3
2019-04-11T04:33:00.809Z,1.1
2019-04-11T04:34:01.947Z,1.1
2019-04-11T04:35:01.873Z,1.2
2019-04-11T04:36:02.324Z,1.2
2019-04-11T04:37:03.554Z,1.3
2019-04-11T04:38:03.009Z,1.3
2019-04-11T04:39:03.987Z,1.2
2019-04-11T04:40:17.468Z,1.1
2019-04-11T04:41:14.626Z,1.2
2019-04-11T04:42:08.796Z,1
2019-04-11T04:43:04.675Z,1.3
2019-04-11T04:44:03.988Z,1.2
2019-04-11T04:45:03.149Z,1.3
2019-04-11T04:46:16.807Z,1.3
2019-04-11T04:47:13.527Z,1.2
2019-04-11T04:48:07.677Z,1.2
2019-04-11T04:49:04.694Z,1.2
2019-04-11T04:50:04.488Z,1.1
2019-04-11T04:51:08.234Z,1.3
2019-04-11T04:52:03.987Z,1.1
2019-04-11T04:53:02.953Z,1.1
2019-04-11T04:54:03.830Z,1.1
2019-04-11T04:55:04.430Z,1.1
2019-04-11T04:56:03.405Z,1.3
2019-04-11T04:57:03.036Z,1.2
2019-04-11T04:58:02.717Z,1.2
2019-04-11T04:59:04.697Z,1.3
2019-04-11T05:00:05.408Z,1.1
2019-04-11T05:01:05.724Z,1.1
2019-04-11T05:02:05.738Z,1
2019-04-11T05:03:05.412Z,1.1
2019-04-11T05:04:05.285Z,1.3
2019-04-11T05:05:06.080Z,1.2
2019-04-11T05:06:04.451Z,1.1
2019-04-11T05:07:05.144Z,1.1
2019-04-11T05:08:06.101Z,1.1
2019-04-11T05:09:06.388Z,1.1
2019-04-11T05:10:06.602Z,1.1
2019-04-11T05:11:05.027Z,1.2
2019-04-11T05:12:05.435Z,1.1
2019-04-11T05:13:05.637Z,1.2
2019-04-11T05:14:05.046Z,1.1
2019-04-11T05:15:04.858Z,1.1
2019-04-11T05:16:15.044Z,1.1
2019-04-11T05:17:06.709Z,1.1
2019-04-11T05:18:06.046Z,1.1
2019-04-11T05:19:06.574Z,1.2
2019-04-11T05:20:06.872Z,1.2
2019-04-11T05:21:05.907Z,1.1
2019-04-11T05:22:06.388Z,1.1
2019-04-11T05:23:06.902Z,1.3
2019-04-11T05:24:06.109Z,1.1
2019-04-11T05:25:06.711Z,1
2019-04-11T05:26:06.729Z,1.1
2019-04-11T05:27:06.670Z,1.3
2019-04-11T05:28:06.426Z,1.1
2019-04-11T05:29:07.041Z,1.3
2019-04-11T05:30:06.965Z,1.1
2019-04-11T05:31:06.573Z,1.1
2019-04-11T05:32:07.245Z,1.2
2019-04-11T05:33:07.038Z,1
2019-04-11T05:34:07.768Z,1.1
2019-04-11T05:35:06.905Z,1.2
2019-04-11T05:36:06.340Z,1.1
2019-04-11T05:37:06.859Z,1.1
2019-04-11T05:38:06.297Z,1.3
2019-04-11T05:39:07.226Z,1.1
2019-04-11T05:40:07.232Z,1.1
2019-04-11T05:41:11.993Z,1.1
2019-04-11T05:42:09.092Z,1
2019-04-11T05:43:08.731Z,1
2019-04-11T05:44:10.411Z,1.2
2019-04-11T05:45:15.626Z,1.1
2019-04-11T05:46:23.767Z,1.1
2019-04-11T05:47:08.973Z,1.1
2019-04-11T05:48:08.064Z,1
2019-04-11T05:49:07.241Z,1.3
2019-04-11T05:50:09.115Z,1
2019-04-11T05:51:08.850Z,1.6
2019-04-11T05:52:08.085Z,1
2019-04-11T05:53:07.954Z,1.1
2019-04-11T05:54:08.876Z,0.9
2019-04-11T05:55:11.845Z,1
2019-04-11T05:56:11.224Z,1.1
2019-04-11T05:57:09.060Z,1
2019-04-11T05:58:11.297Z,1.2
2019-04-11T05:59:09.499Z,1.2
2019-04-11T06:00:10.126Z,1.1
2019-04-11T06:01:14.565Z,1.2
2019-04-11T06:02:10.989Z,1.2
2019-04-11T06:03:09.923Z,1
2019-04-11T06:04:13.055Z,1.1
2019-04-11T06:05:11.095Z,1.2
2019-04-11T06:06:08.928Z,1.1
2019-04-11T06:07:10.403Z,1.2
2019-04-11T06:08:09.914Z,1
2019-04-11T06:09:10.359Z,1.2
2019-04-11T06:10:12.659Z,1.2
2019-04-11T06:11:14.339Z,1.2
2019-04-11T06:12:11.432Z,1
2019-04-11T06:13:10.123Z,1.1
2019-04-11T06:14:09.384Z,1.2
2019-04-11T06:15:09.977Z,1
2019-04-11T06:16:09.264Z,1.2
2019-04-11T06:17:09.382Z,1
2019-04-11T06:18:10.337Z,1.3
2019-04-11T06:19:10.206Z,0.9
2019-04-11T06:20:10.024Z,1.2
2019-04-11T06:21:11.645Z,1
2019-04-11T06:22:12.771Z,1
2019-04-11T06:23:12.860Z,1.2
2019-04-11T06:24:12.025Z,1.1
2019-04-11T06:25:11.212Z,1.1
2019-04-11T06:26:11.271Z,0.9
2019-04-11T06:27:11.293Z,1.2
2019-04-11T06:28:11.807Z,1.4
2019-04-11T06:29:17.079Z,1.2
2019-04-11T06:30:13.399Z,1.1
2019-04-11T06:31:11.832Z,1.1
2019-04-11T06:32:11.812Z,1.2
2019-04-11T06:33:12.647Z,1.6
2019-04-11T06:34:13.308Z,0.9
2019-04-11T06:35:12.204Z,1.1
2019-04-11T06:36:11.912Z,1
2019-04-11T06:38:20.530Z,1.1
2019-04-11T06:38:56.823Z,1
2019-04-11T06:42:37.227Z,1.1
2019-04-11T06:43:39.048Z,1.2
2019-04-11T06:44:39.737Z,1.3
2019-04-11T06:45:37.712Z,1.2
2019-04-11T06:46:49.482Z,1.3
2019-04-11T06:47:39.363Z,1.1
2019-04-11T06:48:38.036Z,1.2
2019-04-11T06:49:38.631Z,1.3
2019-04-11T06:50:39.733Z,1.2
2019-04-11T06:51:37.793Z,1.2
2019-04-11T06:52:39.054Z,1.1
2019-04-11T06:53:39.954Z,1.4
2019-04-11T06:54:39.233Z,1.1
2019-04-11T06:55:39.154Z,1.2
2019-04-11T06:56:38.048Z,1.2
2019-04-11T06:57:40.178Z,1.1
2019-04-11T06:58:40.412Z,1.1
2019-04-11T06:59:44.791Z,1.3
2019-04-11T07:00:42.113Z,1.1
2019-04-11T07:01:42.501Z,1.3
2019-04-11T07:02:41.042Z,1.5
2019-04-11T07:03:42.173Z,1.1
2019-04-11T07:04:39.912Z,1
2019-04-11T07:05:40.607Z,1.2
2019-04-11T07:06:39.945Z,1
2019-04-11T07:07:40.968Z,1.2
2019-04-11T07:08:40.580Z,1.2
2019-04-11T07:09:41.878Z,1.2
2019-04-11T07:10:41.154Z,1.1
2019-04-11T07:11:40.480Z,1.1
2019-04-11T07:12:39.078Z,1.2
2019-04-11T07:13:41.313Z,1.1
2019-04-11T07:14:39.884Z,1
2019-04-11T07:15:40.477Z,1.2
2019-04-11T07:16:40.540Z,1.2
2019-04-11T07:17:40.739Z,1.1
2019-04-11T07:18:42.359Z,1.2
2019-04-11T07:19:42.300Z,1.2
2019-04-11T07:20:41.467Z,1.4
2019-04-11T07:21:41.904Z,1.4
2019-04-11T07:22:41.045Z,1.3
2019-04-11T07:23:44.504Z,1
2019-04-11T07:24:43.173Z,1.2
2019-04-11T07:25:40.314Z,1.2
2019-04-11T07:26:41.696Z,1.1
2019-04-11T07:27:42.872Z,1
2019-04-11T07:28:43.671Z,1.1
2019-04-11T07:29:42.310Z,1.3
2019-04-11T07:30:41.676Z,1.2
2019-04-11T07:31:41.053Z,1.4
2019-04-11T07:32:42.794Z,1.2
2019-04-11T07:33:45.033Z,1.2
2019-04-11T07:34:41.270Z,1.2
2019-04-11T07:35:42.001Z,1.2
2019-04-11T07:36:42.467Z,1.2
2019-04-11T07:37:42.366Z,1.5
2019-04-11T07:38:43.355Z,1.3
2019-04-11T07:39:44.925Z,1.2
2019-04-11T07:40:43.632Z,1.4
2019-04-11T07:41:49.977Z,1.1
2019-04-11T07:42:49.362Z,1.2
2019-04-11T07:43:44.296Z,1
2019-04-11T07:44:43.743Z,1.2
2019-04-11T07:45:43.332Z,1.2
2019-04-11T07:46:45.127Z,1.4
2019-04-11T07:47:46.033Z,1.2
2019-04-11T07:48:42.592Z,1.2
2019-04-11T07:49:45.077Z,1.1
2019-04-11T07:50:42.835Z,1.2
2019-04-11T07:51:44.995Z,1.2
2019-04-11T07:52:44.806Z,1.3
2019-04-11T07:53:43.712Z,1.1
2019-04-11T07:54:43.477Z,1.3
2019-04-11T07:55:42.298Z,1.3
2019-04-11T07:56:42.609Z,1.1
2019-04-11T07:57:42.528Z,1.2
2019-04-11T07:58:42.259Z,1.2
2019-04-11T07:59:42.607Z,1.1
2019-04-11T08:00:45.940Z,1.3
2019-04-11T08:01:43.145Z,1.5
2019-04-11T08:02:44.106Z,1.3
2019-04-11T08:03:42.801Z,1.2
2019-04-11T08:04:42.900Z,1.2
2019-04-11T08:05:42.684Z,1.4
2019-04-11T08:06:45.605Z,1.3
2019-04-11T08:07:44.800Z,1.3
2019-04-11T08:08:43.387Z,1.4
2019-04-11T08:09:43.794Z,1.3
2019-04-11T08:10:43.658Z,1.1
2019-04-11T08:11:44.239Z,1.4
2019-04-11T08:12:44.164Z,1.2
2019-04-11T08:13:43.025Z,1.3
2019-04-11T08:14:42.853Z,1.2
2019-04-11T08:15:43.932Z,1.2
2019-04-11T08:16:45.003Z,1.3
2019-04-11T08:17:44.450Z,1.2
2019-04-11T08:18:43.338Z,1.1
2019-04-11T08:19:45.356Z,1.4
2019-04-11T08:20:43.582Z,1.3
2019-04-11T08:21:44.080Z,1.1
2019-04-11T08:22:45.431Z,1.2
2019-04-11T08:23:43.597Z,1.1
2019-04-11T08:24:44.918Z,1.3
2019-04-11T08:25:42.632Z,1.1
2019-04-11T08:26:44.349Z,1.4
2019-04-11T08:27:54.446Z,1.5
2019-04-11T08:28:45.486Z,1.4
2019-04-11T08:29:44.462Z,1.3
2019-04-11T08:30:44.826Z,1.3
2019-04-11T08:31:44.472Z,1.2
2019-04-11T08:32:46.283Z,1.5
2019-04-11T08:33:44.766Z,1.1
2019-04-11T08:34:43.799Z,1.3
2019-04-11T08:35:44.090Z,1.1
2019-04-11T08:36:44.177Z,1.1
2019-04-11T08:37:43.849Z,1.1
2019-04-11T08:38:44.763Z,1.3
2019-04-11T08:39:44.978Z,1.4
2019-04-11T08:40:45.054Z,1.1
2019-04-11T08:41:44.961Z,1.2
2019-04-11T08:42:43.746Z,1.4
2019-04-11T08:43:44.185Z,1.1
2019-04-11T08:44:44.842Z,1.2
2019-04-11T08:45:44.414Z,1.1
2019-04-11T08:46:45.287Z,1.3
2019-04-11T08:47:47.429Z,1.2
2019-04-11T08:48:45.605Z,1.1
2019-04-11T08:49:45.839Z,1.6
2019-04-11T08:50:45.117Z,1.1
2019-04-11T08:51:54.085Z,1.2
2019-04-11T08:52:44.599Z,1.4
2019-04-11T08:53:45.122Z,1
2019-04-11T08:54:47.964Z,1.2
2019-04-11T08:55:53.541Z,1.2
2019-04-11T08:56:47.363Z,1.5
2019-04-11T08:57:45.967Z,1.2
2019-04-11T08:58:51.212Z,1.2
2019-04-11T09:00:06.133Z,1.3
2019-04-11T09:00:51.136Z,1.4
2019-04-11T09:01:47.185Z,1.3
2019-04-11T09:02:46.997Z,1.3
2019-04-11T09:03:57.285Z,1.3
2019-04-11T09:04:48.225Z,1.3
2019-04-11T09:05:45.080Z,1.3
2019-04-11T09:06:45.285Z,1.3
2019-04-11T09:07:45.701Z,1.2
2019-04-11T09:08:46.861Z,1.5
2019-04-11T09:09:47.375Z,1.5
2019-04-11T09:10:47.017Z,1.4
2019-04-11T09:11:46.939Z,1.5
2019-04-11T09:12:46.789Z,1.4
2019-04-11T09:13:47.631Z,1.5
2019-04-11T09:14:46.460Z,1.5
2019-04-11T09:15:45.595Z,1.2
2019-04-11T09:16:45.827Z,1.5
2019-04-11T09:17:56.424Z,1.4
2019-04-11T09:18:47.200Z,1.3
2019-04-11T09:19:45.596Z,1.3
2019-04-11T09:20:47.826Z,1.3
2019-04-11T09:21:47.210Z,1.4
2019-04-11T09:22:47.110Z,1.2
2019-04-11T09:23:48.101Z,1.4
2019-04-11T09:24:48.443Z,1.5
2019-04-11T09:25:50.249Z,1.5
2019-04-11T09:26:48.403Z,1.6
2019-04-11T09:27:46.997Z,1.6
2019-04-11T09:28:51.558Z,1.5
2019-04-11T09:29:48.392Z,1.4
2019-04-11T09:30:49.404Z,1.5
2019-04-11T09:31:49.344Z,1.5
2019-04-11T09:32:46.928Z,1.5
2019-04-11T09:33:47.390Z,1.6
2019-04-11T09:34:48.177Z,1.4
2019-04-11T09:35:47.135Z,1.5
2019-04-11T09:36:49.224Z,1.5
2019-04-11T09:37:47.432Z,1.6
2019-04-11T09:38:48.664Z,1.5
2019-04-11T09:39:47.679Z,1.5
2019-04-11T09:40:50.085Z,1.6
2019-04-11T09:41:57.216Z,1.3
2019-04-11T09:42:53.446Z,1.4
2019-04-11T09:44:01.834Z,1.3
2019-04-11T09:45:05.983Z,1.4
2019-04-11T09:45:54.293Z,1.7
2019-04-11T09:46:48.840Z,1.7
2019-04-11T09:47:50.310Z,1.4
2019-04-11T09:48:48.505Z,1.4
2019-04-11T09:49:47.485Z,1.2
2019-04-11T09:50:48.915Z,1.8
2019-04-11T09:52:02.517Z,1.4
2019-04-11T09:52:54.540Z,1.5
2019-04-11T09:53:52.640Z,1.5
2019-04-11T09:54:50.573Z,1.7
2019-04-11T09:55:53.671Z,1.7
2019-04-11T09:56:50.309Z,1.5
2019-04-11T09:57:52.536Z,1.6
2019-04-11T09:58:49.767Z,1.6
2019-04-11T09:59:53.887Z,1.7
2019-04-11T10:00:48.136Z,1.3
2019-04-11T10:01:47.575Z,1.5
2019-04-11T10:02:53.184Z,1.7
2019-04-11T10:03:48.602Z,1.9
2019-04-11T10:04:48.063Z,1.7
2019-04-11T10:05:54.784Z,1.5
2019-04-11T10:06:51.365Z,1.5
2019-04-11T10:07:48.092Z,1.5
2019-04-11T10:08:49.251Z,1.5
2019-04-11T10:09:48.430Z,1.6
2019-04-11T10:10:49.134Z,1.6
2019-04-11T10:11:48.754Z,1.5
2019-04-11T10:12:48.599Z,1.4
2019-04-11T10:13:51.166Z,1.6
2019-04-11T10:14:48.146Z,1.7
2019-04-11T10:15:47.597Z,1.7
2019-04-11T10:16:48.615Z,1.6
2019-04-11T10:17:51.841Z,1.5
2019-04-11T10:18:51.519Z,1.6
2019-04-11T10:20:06.523Z,1.7
2019-04-11T10:20:50.848Z,1.8
2019-04-11T10:21:49.852Z,1.8
2019-04-11T10:22:49.600Z,1.9
2019-04-11T10:23:51.234Z,1.6
2019-04-11T10:24:50.514Z,1.6
2019-04-11T10:25:51.743Z,1.8
2019-04-11T10:26:52.078Z,2.1
2019-04-11T10:27:49.028Z,1.7
2019-04-11T10:28:53.593Z,1.7
2019-04-11T10:29:50.535Z,1.7
2019-04-11T10:30:52.078Z,1.7
2019-04-11T10:31:52.539Z,1.6
2019-04-11T10:32:51.862Z,1.9
2019-04-11T10:33:53.371Z,1.6
2019-04-11T10:34:50.467Z,1.6
2019-04-11T10:35:48.480Z,1.6
2019-04-11T10:36:49.628Z,1.9
2019-04-11T10:37:51.891Z,1.9
2019-04-11T10:38:51.257Z,1.5
2019-04-11T10:39:51.626Z,1.8
2019-04-11T10:40:52.347Z,1.6
2019-04-11T10:41:52.154Z,1.9
2019-04-11T10:42:50.161Z,1.8
2019-04-11T10:43:53.821Z,1.8
2019-04-11T10:44:49.837Z,1.7
2019-04-11T10:45:49.421Z,1.8
2019-04-11T10:46:51.454Z,1.6
2019-04-11T10:47:55.877Z,1.5
2019-04-11T10:52:00.219Z,1.8
2019-04-11T10:52:46.724Z,2.1
2019-04-11T10:53:47.530Z,2
2019-04-11T10:54:33.828Z,1.6
2019-04-11T10:55:27.349Z,1.8
2019-04-11T10:57:13.885Z,1.6
2019-04-11T10:57:38.239Z,1.6
2019-04-11T10:58:33.031Z,1.8
2019-04-11T10:59:30.343Z,1.8
2019-04-11T11:00:56.173Z,1.9
2019-04-11T11:01:34.210Z,1.7
2019-04-11T11:02:35.632Z,1.8
2019-04-11T11:03:34.045Z,1.7
2019-04-11T11:04:29.829Z,1.8
2019-04-11T11:05:30.981Z,1.7
2019-04-11T11:06:29.571Z,1.8
2019-04-11T11:07:36.718Z,1.8
2019-04-11T11:08:34.368Z,1.6
2019-04-11T11:09:30.295Z,1.5
2019-04-11T11:10:31.240Z,1.7
2019-04-11T11:11:28.874Z,1.8
2019-04-11T11:12:29.592Z,1.9
2019-04-11T11:13:29.880Z,1.9
2019-04-11T11:14:31.589Z,1.9
2019-04-11T11:15:39.870Z,2
2019-04-11T11:16:41.792Z,2.1
2019-04-11T11:17:52.558Z,1.9
2019-04-11T11:18:47.795Z,1.6
2019-04-11T11:19:45.396Z,1.8
2019-04-11T11:20:41.411Z,1.8
2019-04-11T11:21:34.236Z,1.8
2019-04-11T11:23:06.707Z,1.6
2019-04-11T11:23:33.660Z,1.7
2019-04-11T11:25:48.040Z,1.7
2019-04-11T11:26:51.921Z,2
2019-04-11T11:27:09.687Z,1.9
2019-04-11T11:28:05.244Z,1.9
2019-04-11T11:29:08.311Z,2
2019-04-11T11:30:06.116Z,2
2019-04-11T11:31:03.718Z,2
2019-04-11T11:32:05.126Z,1.6
2019-04-11T11:33:14.374Z,2
2019-04-11T11:34:05.362Z,2
2019-04-11T11:35:07.360Z,1.7
2019-04-11T11:36:08.929Z,2
2019-04-11T11:37:11.204Z,1.9
2019-04-11T11:38:13.537Z,1.9
2019-04-11T11:40:00.189Z,1.9
2019-04-11T11:40:27.951Z,2
2019-04-11T11:41:25.630Z,1.9
2019-04-11T11:42:12.335Z,2.2
2019-04-11T11:43:11.898Z,2.1
2019-04-11T11:44:42.164Z,2.4
2019-04-11T11:45:19.512Z,2.5
2019-04-11T11:46:12.210Z,2.8
2019-04-11T11:48:17.597Z,3.2
2019-04-11T11:48:36.459Z,3.7
2019-04-11T11:49:45.514Z,3.2
2019-04-11T11:50:40.300Z,3.7
2019-04-11T11:51:37.344Z,3.2
2019-04-11T11:52:33.245Z,3.1
2019-04-11T11:53:38.599Z,3.4
2019-04-11T11:54:35.638Z,3.4
2019-04-11T11:55:37.653Z,3.7
2019-04-11T11:56:38.430Z,3.6
2019-04-11T11:57:31.511Z,3.6
2019-04-11T11:58:31.625Z,4
2019-04-11T11:59:32.954Z,3.3
2019-04-11T12:00:30.579Z,3.3
2019-04-11T12:01:33.661Z,3.4
2019-04-11T12:02:38.919Z,3.2
2019-04-11T12:03:55.311Z,3.7
2019-04-11T12:04:35.914Z,3.6
2019-04-11T12:05:34.703Z,3.4
2019-04-11T12:06:58.790Z,3.7
2019-04-11T12:07:37.827Z,4
2019-04-11T12:08:35.291Z,4.1
2019-04-11T12:09:34.177Z,4
2019-04-11T12:10:37.477Z,4.2
2019-04-11T12:11:30.800Z,4
2019-04-11T12:12:33.031Z,4.4
2019-04-11T12:13:34.396Z,4.1
2019-04-11T12:14:39.884Z,4.3
2019-04-11T12:15:33.001Z,3.9
2019-04-11T12:16:36.634Z,4.2
2019-04-11T12:17:32.395Z,3.7
2019-04-11T12:18:32.701Z,4
2019-04-11T12:19:44.493Z,3.8
2019-04-11T12:20:44.361Z,4.3
2019-04-11T12:23:19.613Z,4.2
2019-04-11T12:23:47.125Z,4.3
2019-04-11T12:24:38.752Z,4.5
2019-04-11T12:25:34.672Z,4.1
2019-04-11T12:26:33.891Z,4.5
2019-04-11T12:27:35.095Z,3.9
2019-04-11T12:29:36.475Z,4
2019-04-11T12:30:37.333Z,4.1
2019-04-11T12:31:37.193Z,4
2019-04-11T12:32:34.706Z,3.7
2019-04-11T12:33:33.810Z,3.8
2019-04-11T12:34:34.495Z,4
2019-04-11T12:35:35.892Z,3.8
2019-04-11T12:36:41.818Z,4.2
2019-04-11T12:37:38.598Z,4.3
2019-04-11T12:38:37.414Z,4.3
2019-04-11T12:39:34.617Z,3.9
2019-04-11T12:40:34.026Z,3.6
2019-04-11T12:41:34.671Z,3.5
2019-04-11T12:42:37.199Z,4
2019-04-11T12:43:33.929Z,3.9
2019-04-11T12:44:41.559Z,4.1
2019-04-11T12:45:35.090Z,4.1
2019-04-11T12:46:35.476Z,3.9
2019-04-11T12:47:57.844Z,3.9
2019-04-11T12:48:40.162Z,3.9
2019-04-11T12:49:35.031Z,4.3
2019-04-11T12:50:38.032Z,3.8
2019-04-11T12:51:34.830Z,3.8
2019-04-11T12:52:36.694Z,4.4
2019-04-11T12:53:35.016Z,3.7
2019-04-11T12:54:37.908Z,4
2019-04-11T12:55:36.112Z,3.9
2019-04-11T12:56:45.006Z,3.9
2019-04-11T12:57:35.425Z,3.9
2019-04-11T12:58:35.210Z,4
2019-04-11T12:59:35.450Z,4.1
2019-04-11T13:00:35.397Z,3.8
2019-04-11T13:01:38.149Z,3.9
2019-04-11T13:02:34.887Z,3.9
2019-04-11T13:03:36.622Z,4.2
2019-04-11T13:04:37.932Z,4
2019-04-11T13:05:35.155Z,3.7
2019-04-11T13:07:00.735Z,4.4
2019-04-11T13:07:41.812Z,4.1
2019-04-11T13:08:36.029Z,3.9
2019-04-11T13:09:39.447Z,4.4
2019-04-11T13:10:36.487Z,4
2019-04-11T13:11:35.731Z,3.9
2019-04-11T13:12:41.140Z,4.1
2019-04-11T13:13:53.810Z,4.1
2019-04-11T13:14:39.893Z,3.9
2019-04-11T13:15:39.972Z,4.2
2019-04-11T13:16:39.367Z,3.5
2019-04-11T13:17:36.273Z,4
2019-04-11T13:18:39.111Z,4.2
2019-04-11T13:19:37.006Z,3.9
2019-04-11T13:20:37.572Z,3.8
2019-04-11T13:21:41.188Z,4.4
2019-04-11T13:22:44.391Z,3.9
2019-04-11T13:23:40.479Z,3.7
2019-04-11T13:24:39.648Z,4.1
2019-04-11T13:25:37.187Z,4
2019-04-11T13:26:36.894Z,3.9
2019-04-11T13:27:36.160Z,4.1
2019-04-11T13:28:39.626Z,4
2019-04-11T13:29:39.060Z,4.2
2019-04-11T13:30:36.722Z,4.3
2019-04-11T13:31:39.890Z,4.4
2019-04-11T13:32:37.788Z,4.3
2019-04-11T13:33:38.273Z,3.9
2019-04-11T13:34:36.621Z,3.9
2019-04-11T13:35:37.854Z,4.2
2019-04-11T13:36:36.850Z,3.6
2019-04-11T13:37:37.752Z,4.2
2019-04-11T13:38:37.593Z,4.2
2019-04-11T13:39:38.240Z,4.1
2019-04-11T13:40:39.808Z,4
2019-04-11T13:41:37.853Z,4.1
2019-04-11T13:42:41.505Z,4.1
2019-04-11T13:43:49.802Z,4.1
2019-04-11T13:44:37.928Z,4.2
2019-04-11T13:45:38.338Z,4.6
2019-04-11T13:46:39.456Z,4.5
2019-04-11T13:47:37.600Z,4.3
2019-04-11T13:48:38.640Z,3.9
2019-04-11T13:49:39.885Z,4.6
2019-04-11T13:50:39.170Z,4.4
2019-04-11T13:51:41.171Z,3.9
2019-04-11T13:52:38.727Z,4.4
2019-04-11T13:53:38.832Z,4.2
2019-04-11T13:54:41.709Z,4.3
2019-04-11T13:55:38.131Z,4.5
2019-04-11T13:56:39.505Z,4.4
2019-04-11T13:57:38.562Z,4.7
2019-04-11T13:58:40.352Z,4.7
2019-04-11T13:59:40.087Z,4.4
2019-04-11T14:00:39.495Z,4.1
2019-04-11T14:01:41.144Z,4.2
2019-04-11T14:02:50.571Z,4.5
2019-04-11T14:03:40.129Z,4.2